This is the latest recevied weather packets stored in our database for station/object DM5AO-10. If no packets are shown the sender has not sent any weather packets the latest 10 day(s).
| Time | Temp. | Humidity | Pressure | Rain* | Wind** | Luminosity | Snow |
|---|---|---|---|---|---|---|---|
| 1787602150 | 22.22° C | 50% | 1021.4 hPa | - | - | - | - |
| 1787601249 | 22.22° C | 51% | 1021.5 hPa | - | - | - | - |
| 1787600348 | 22.22° C | 50% | 1021.5 hPa | - | - | - | - |
| 1787599447 | 22.78° C | 49% | 1021.4 hPa | - | - | - | - |
| 1787598547 | 22.78° C | 49% | 1021.5 hPa | - | - | - | - |
| 1787597646 | 22.78° C | 48% | 1021.6 hPa | - | - | - | - |
| 1787596745 | 23.33° C | 48% | 1021.5 hPa | - | - | - | - |
| 1787595844 | 23.33° C | 47% | 1021.5 hPa | - | - | - | - |
| 1787594943 | 23.89° C | 47% | 1021.4 hPa | - | - | - | - |
| 1787594043 | 23.89° C | 46% | 1021.4 hPa | - | - | - | - |
| 1787593142 | 23.89° C | 47% | 1021.5 hPa | - | - | - | - |
| 1787592241 | 23.89° C | 45% | 1021.4 hPa | - | - | - | - |
| 1787591340 | 24.44° C | 43% | 1021.6 hPa | - | - | - | - |
| 1787590439 | 24.44° C | 42% | 1021.7 hPa | - | - | - | - |
| 1787589538 | 24.44° C | 42% | 1021.7 hPa | - | - | - | - |
| 1787588637 | 25° C | 42% | 1021.8 hPa | - | - | - | - |
| 1787587736 | 25.56° C | 39% | 1021.9 hPa | - | - | - | - |
| 1787586835 | 25.56° C | 40% | 1022 hPa | - | - | - | - |
| 1787585934 | 26.11° C | 38% | 1022.2 hPa | - | - | - | - |
| 1787585033 | 26.67° C | 38% | 1022.2 hPa | - | - | - | - |
| 1787584132 | 26.67° C | 39% | 1022.4 hPa | - | - | - | - |
| 1787583231 | 29.44° C | 35% | 1022.7 hPa | - | - | - | - |
| 1787582331 | 25.56° C | 41% | 1022.8 hPa | - | - | - | - |
| 1787581430 | 36.67° C | 25% | 1022.9 hPa | - | - | - | - |
| 1787580529 | 26.11° C | 41% | 1023 hPa | - | - | - | - |
* Rain since midnight (hover to see other rain measurements)
** Current wind speed in m/s (hover to see current wind gust speed)